sensor_id;sensor_type;location;lat;lon;timestamp;P1;durP1;ratioP1;P2;durP2;ratioP2
35444;SDS011;21562;49.476;6.086;2024-02-14T00:02:20;5.50;;;2.17;;
35444;SDS011;21562;49.476;6.086;2024-02-14T00:04:46;6.43;;;1.92;;
35444;SDS011;21562;49.476;6.086;2024-02-14T00:07:13;6.18;;;1.50;;
35444;SDS011;21562;49.476;6.086;2024-02-14T00:09:39;6.25;;;1.48;;
35444;SDS011;21562;49.476;6.086;2024-02-14T00:12:05;6.60;;;1.80;;
35444;SDS011;21562;49.476;6.086;2024-02-14T00:14:31;8.60;;;1.65;;
35444;SDS011;21562;49.476;6.086;2024-02-14T00:16:57;4.82;;;1.90;;
35444;SDS011;21562;49.476;6.086;2024-02-14T00:19:24;6.05;;;1.83;;
35444;SDS011;21562;49.476;6.086;2024-02-14T00:21:50;8.40;;;2.35;;
35444;SDS011;21562;49.476;6.086;2024-02-14T00:24:16;6.28;;;2.38;;
35444;SDS011;21562;49.476;6.086;2024-02-14T00:26:43;4.07;;;1.98;;
35444;SDS011;21562;49.476;6.086;2024-02-14T00:29:11;8.80;;;2.38;;
35444;SDS011;21562;49.476;6.086;2024-02-14T00:31:37;8.07;;;2.10;;
35444;SDS011;21562;49.476;6.086;2024-02-14T00:34:02;5.53;;;1.40;;
35444;SDS011;21562;49.476;6.086;2024-02-14T00:36:29;9.20;;;2.30;;
35444;SDS011;21562;49.476;6.086;2024-02-14T00:38:55;4.57;;;1.90;;
35444;SDS011;21562;49.476;6.086;2024-02-14T00:41:21;9.75;;;2.63;;
35444;SDS011;21562;49.476;6.086;2024-02-14T00:43:46;7.00;;;2.15;;
35444;SDS011;21562;49.476;6.086;2024-02-14T00:46:16;3.33;;;1.85;;
35444;SDS011;21562;49.476;6.086;2024-02-14T00:48:42;6.50;;;1.88;;
35444;SDS011;21562;49.476;6.086;2024-02-14T00:51:09;7.72;;;1.92;;
35444;SDS011;21562;49.476;6.086;2024-02-14T00:53:35;4.38;;;1.70;;
35444;SDS011;21562;49.476;6.086;2024-02-14T00:56:01;7.80;;;2.10;;
35444;SDS011;21562;49.476;6.086;2024-02-14T00:58:27;6.20;;;2.28;;
35444;SDS011;21562;49.476;6.086;2024-02-14T01:00:53;8.45;;;2.00;;
35444;SDS011;21562;49.476;6.086;2024-02-14T01:03:19;13.32;;;1.92;;
35444;SDS011;21562;49.476;6.086;2024-02-14T01:05:44;4.97;;;1.70;;
35444;SDS011;21562;49.476;6.086;2024-02-14T01:08:10;3.47;;;1.77;;
35444;SDS011;21562;49.476;6.086;2024-02-14T01:10:36;6.78;;;1.65;;
35444;SDS011;21562;49.476;6.086;2024-02-14T01:13:02;3.95;;;2.08;;
35444;SDS011;21562;49.476;6.086;2024-02-14T01:15:27;4.78;;;2.53;;
35444;SDS011;21562;49.476;6.086;2024-02-14T01:17:53;7.43;;;2.15;;
35444;SDS011;21562;49.476;6.086;2024-02-14T01:20:19;5.22;;;1.70;;
35444;SDS011;21562;49.476;6.086;2024-02-14T01:22:45;8.18;;;2.33;;
35444;SDS011;21562;49.476;6.086;2024-02-14T01:25:11;5.40;;;1.98;;
35444;SDS011;21562;49.476;6.086;2024-02-14T01:27:37;9.30;;;1.85;;
35444;SDS011;21562;49.476;6.086;2024-02-14T01:30:04;5.82;;;1.83;;
35444;SDS011;21562;49.476;6.086;2024-02-14T01:32:30;4.47;;;1.80;;
35444;SDS011;21562;49.476;6.086;2024-02-14T01:34:56;6.75;;;1.60;;
35444;SDS011;21562;49.476;6.086;2024-02-14T01:37:22;6.22;;;1.52;;
35444;SDS011;21562;49.476;6.086;2024-02-14T01:39:48;4.53;;;1.38;;
35444;SDS011;21562;49.476;6.086;2024-02-14T01:42:14;4.35;;;1.90;;
35444;SDS011;21562;49.476;6.086;2024-02-14T01:44:39;12.32;;;2.50;;
35444;SDS011;21562;49.476;6.086;2024-02-14T01:47:05;4.75;;;1.90;;
35444;SDS011;21562;49.476;6.086;2024-02-14T01:49:32;6.30;;;1.75;;
35444;SDS011;21562;49.476;6.086;2024-02-14T01:52:00;7.78;;;1.60;;
35444;SDS011;21562;49.476;6.086;2024-02-14T01:54:31;5.72;;;1.80;;
35444;SDS011;21562;49.476;6.086;2024-02-14T01:56:58;5.03;;;2.15;;
35444;SDS011;21562;49.476;6.086;2024-02-14T01:59:25;9.85;;;2.10;;
35444;SDS011;21562;49.476;6.086;2024-02-14T02:01:52;5.40;;;1.73;;
35444;SDS011;21562;49.476;6.086;2024-02-14T02:04:18;4.72;;;2.00;;
35444;SDS011;21562;49.476;6.086;2024-02-14T02:06:43;7.30;;;1.65;;
35444;SDS011;21562;49.476;6.086;2024-02-14T02:09:10;4.72;;;1.90;;
35444;SDS011;21562;49.476;6.086;2024-02-14T02:11:45;5.00;;;1.92;;
35444;SDS011;21562;49.476;6.086;2024-02-14T02:14:13;5.75;;;2.17;;
35444;SDS011;21562;49.476;6.086;2024-02-14T02:16:39;7.15;;;2.40;;
35444;SDS011;21562;49.476;6.086;2024-02-14T02:19:05;5.50;;;2.00;;
35444;SDS011;21562;49.476;6.086;2024-02-14T02:21:33;7.18;;;1.92;;
35444;SDS011;21562;49.476;6.086;2024-02-14T02:24:00;8.57;;;2.00;;
35444;SDS011;21562;49.476;6.086;2024-02-14T02:26:26;6.00;;;1.95;;
35444;SDS011;21562;49.476;6.086;2024-02-14T02:28:52;6.60;;;2.58;;
35444;SDS011;21562;49.476;6.086;2024-02-14T02:31:18;7.68;;;1.88;;
35444;SDS011;21562;49.476;6.086;2024-02-14T02:33:44;7.10;;;1.77;;
35444;SDS011;21562;49.476;6.086;2024-02-14T02:36:10;4.55;;;1.40;;
35444;SDS011;21562;49.476;6.086;2024-02-14T02:38:36;5.45;;;1.90;;
35444;SDS011;21562;49.476;6.086;2024-02-14T02:41:03;6.40;;;2.08;;
35444;SDS011;21562;49.476;6.086;2024-02-14T02:43:33;11.02;;;2.05;;
35444;SDS011;21562;49.476;6.086;2024-02-14T02:45:59;8.50;;;2.22;;
35444;SDS011;21562;49.476;6.086;2024-02-14T02:48:24;4.97;;;1.90;;
35444;SDS011;21562;49.476;6.086;2024-02-14T02:50:51;5.28;;;1.90;;
35444;SDS011;21562;49.476;6.086;2024-02-14T02:53:17;10.23;;;1.83;;
35444;SDS011;21562;49.476;6.086;2024-02-14T02:55:43;8.07;;;2.13;;
35444;SDS011;21562;49.476;6.086;2024-02-14T02:58:09;6.50;;;1.90;;
35444;SDS011;21562;49.476;6.086;2024-02-14T03:00:35;6.32;;;2.08;;
35444;SDS011;21562;49.476;6.086;2024-02-14T03:03:01;6.40;;;1.85;;
35444;SDS011;21562;49.476;6.086;2024-02-14T03:05:29;7.07;;;1.77;;
35444;SDS011;21562;49.476;6.086;2024-02-14T03:07:58;9.27;;;2.17;;
35444;SDS011;21562;49.476;6.086;2024-02-14T03:10:24;12.30;;;2.42;;
35444;SDS011;21562;49.476;6.086;2024-02-14T03:12:51;6.47;;;2.33;;
35444;SDS011;21562;49.476;6.086;2024-02-14T03:15:17;8.32;;;2.10;;
35444;SDS011;21562;49.476;6.086;2024-02-14T03:17:43;7.70;;;2.78;;
35444;SDS011;21562;49.476;6.086;2024-02-14T03:20:10;7.78;;;2.17;;
35444;SDS011;21562;49.476;6.086;2024-02-14T03:22:42;3.95;;;1.80;;
35444;SDS011;21562;49.476;6.086;2024-02-14T03:25:12;5.80;;;1.60;;
35444;SDS011;21562;49.476;6.086;2024-02-14T03:27:41;6.75;;;1.95;;
35444;SDS011;21562;49.476;6.086;2024-02-14T03:30:07;6.95;;;2.15;;
35444;SDS011;21562;49.476;6.086;2024-02-14T03:32:33;7.97;;;1.92;;
35444;SDS011;21562;49.476;6.086;2024-02-14T03:35:00;3.50;;;1.88;;
35444;SDS011;21562;49.476;6.086;2024-02-14T03:37:26;3.90;;;2.25;;
35444;SDS011;21562;49.476;6.086;2024-02-14T03:39:52;6.18;;;2.33;;
35444;SDS011;21562;49.476;6.086;2024-02-14T03:42:18;6.00;;;2.10;;
35444;SDS011;21562;49.476;6.086;2024-02-14T03:44:44;8.77;;;2.00;;
35444;SDS011;21562;49.476;6.086;2024-02-14T03:47:11;8.88;;;2.20;;
35444;SDS011;21562;49.476;6.086;2024-02-14T03:49:38;4.13;;;1.33;;
35444;SDS011;21562;49.476;6.086;2024-02-14T03:52:06;3.83;;;2.05;;
35444;SDS011;21562;49.476;6.086;2024-02-14T03:54:35;6.07;;;1.92;;
35444;SDS011;21562;49.476;6.086;2024-02-14T03:57:02;3.63;;;1.92;;
35444;SDS011;21562;49.476;6.086;2024-02-14T03:59:30;8.95;;;2.85;;
35444;SDS011;21562;49.476;6.086;2024-02-14T04:01:55;9.05;;;2.85;;
35444;SDS011;21562;49.476;6.086;2024-02-14T04:04:23;8.57;;;2.90;;
35444;SDS011;21562;49.476;6.086;2024-02-14T04:06:49;6.43;;;2.85;;
35444;SDS011;21562;49.476;6.086;2024-02-14T04:09:14;7.18;;;2.50;;
35444;SDS011;21562;49.476;6.086;2024-02-14T04:11:40;6.22;;;3.08;;
35444;SDS011;21562;49.476;6.086;2024-02-14T04:14:06;5.40;;;2.30;;
35444;SDS011;21562;49.476;6.086;2024-02-14T04:16:32;7.95;;;2.80;;
35444;SDS011;21562;49.476;6.086;2024-02-14T04:18:58;7.68;;;2.38;;
35444;SDS011;21562;49.476;6.086;2024-02-14T04:21:23;12.65;;;3.13;;
35444;SDS011;21562;49.476;6.086;2024-02-14T04:23:50;4.63;;;2.10;;
35444;SDS011;21562;49.476;6.086;2024-02-14T04:26:21;3.78;;;2.05;;
35444;SDS011;21562;49.476;6.086;2024-02-14T04:28:47;5.78;;;2.00;;
35444;SDS011;21562;49.476;6.086;2024-02-14T04:31:13;3.85;;;1.88;;
35444;SDS011;21562;49.476;6.086;2024-02-14T04:33:39;7.13;;;1.75;;
35444;SDS011;21562;49.476;6.086;2024-02-14T04:36:05;2.20;;;1.35;;
35444;SDS011;21562;49.476;6.086;2024-02-14T04:38:31;6.25;;;1.50;;
35444;SDS011;21562;49.476;6.086;2024-02-14T04:40:57;5.47;;;1.40;;
35444;SDS011;21562;49.476;6.086;2024-02-14T04:43:23;3.72;;;1.40;;
35444;SDS011;21562;49.476;6.086;2024-02-14T04:45:51;1.77;;;1.23;;
35444;SDS011;21562;49.476;6.086;2024-02-14T04:48:17;2.92;;;1.05;;
35444;SDS011;21562;49.476;6.086;2024-02-14T04:50:43;3.10;;;1.85;;
35444;SDS011;21562;49.476;6.086;2024-02-14T04:53:09;2.83;;;1.52;;
35444;SDS011;21562;49.476;6.086;2024-02-14T04:55:34;2.60;;;1.70;;
35444;SDS011;21562;49.476;6.086;2024-02-14T04:58:01;2.65;;;1.50;;
35444;SDS011;21562;49.476;6.086;2024-02-14T05:00:26;3.28;;;1.35;;
35444;SDS011;21562;49.476;6.086;2024-02-14T05:02:53;6.22;;;1.80;;
35444;SDS011;21562;49.476;6.086;2024-02-14T05:05:18;3.53;;;1.50;;
35444;SDS011;21562;49.476;6.086;2024-02-14T05:07:45;2.50;;;1.55;;
35444;SDS011;21562;49.476;6.086;2024-02-14T05:10:11;4.70;;;2.35;;
35444;SDS011;21562;49.476;6.086;2024-02-14T05:12:37;3.50;;;1.67;;
35444;SDS011;21562;49.476;6.086;2024-02-14T05:15:03;3.25;;;1.80;;
35444;SDS011;21562;49.476;6.086;2024-02-14T05:17:29;3.38;;;1.92;;
35444;SDS011;21562;49.476;6.086;2024-02-14T05:19:55;3.63;;;2.17;;
35444;SDS011;21562;49.476;6.086;2024-02-14T05:22:22;3.88;;;2.30;;
35444;SDS011;21562;49.476;6.086;2024-02-14T05:24:48;4.10;;;2.47;;
35444;SDS011;21562;49.476;6.086;2024-02-14T05:27:13;3.78;;;2.42;;
35444;SDS011;21562;49.476;6.086;2024-02-14T05:29:39;8.07;;;2.45;;
35444;SDS011;21562;49.476;6.086;2024-02-14T05:32:05;2.97;;;1.85;;
35444;SDS011;21562;49.476;6.086;2024-02-14T05:34:31;3.22;;;1.90;;
35444;SDS011;21562;49.476;6.086;2024-02-14T05:36:57;3.60;;;2.10;;
35444;SDS011;21562;49.476;6.086;2024-02-14T05:39:23;3.70;;;2.28;;
35444;SDS011;21562;49.476;6.086;2024-02-14T05:41:48;6.57;;;2.40;;
35444;SDS011;21562;49.476;6.086;2024-02-14T05:44:14;5.30;;;2.55;;
35444;SDS011;21562;49.476;6.086;2024-02-14T05:46:40;4.00;;;2.42;;
35444;SDS011;21562;49.476;6.086;2024-02-14T05:49:06;2.78;;;2.08;;
35444;SDS011;21562;49.476;6.086;2024-02-14T05:51:32;2.78;;;2.05;;
35444;SDS011;21562;49.476;6.086;2024-02-14T05:53:58;3.35;;;2.00;;
35444;SDS011;21562;49.476;6.086;2024-02-14T05:56:24;3.30;;;1.77;;
35444;SDS011;21562;49.476;6.086;2024-02-14T05:58:49;3.53;;;2.38;;
35444;SDS011;21562;49.476;6.086;2024-02-14T06:01:15;4.50;;;2.30;;
35444;SDS011;21562;49.476;6.086;2024-02-14T06:03:41;5.60;;;2.70;;
35444;SDS011;21562;49.476;6.086;2024-02-14T06:06:10;4.20;;;2.33;;
35444;SDS011;21562;49.476;6.086;2024-02-14T06:08:36;3.55;;;2.22;;
35444;SDS011;21562;49.476;6.086;2024-02-14T06:11:02;3.97;;;2.33;;
35444;SDS011;21562;49.476;6.086;2024-02-14T06:13:27;3.22;;;1.88;;
35444;SDS011;21562;49.476;6.086;2024-02-14T06:15:53;3.45;;;1.92;;
35444;SDS011;21562;49.476;6.086;2024-02-14T06:18:19;2.67;;;1.30;;
35444;SDS011;21562;49.476;6.086;2024-02-14T06:20:44;2.15;;;1.50;;
35444;SDS011;21562;49.476;6.086;2024-02-14T06:23:11;1.83;;;1.27;;
35444;SDS011;21562;49.476;6.086;2024-02-14T06:25:37;1.85;;;1.27;;
35444;SDS011;21562;49.476;6.086;2024-02-14T06:28:03;2.03;;;1.23;;
35444;SDS011;21562;49.476;6.086;2024-02-14T06:30:29;3.22;;;1.35;;
35444;SDS011;21562;49.476;6.086;2024-02-14T06:32:54;3.25;;;1.33;;
35444;SDS011;21562;49.476;6.086;2024-02-14T06:35:21;1.70;;;1.20;;
35444;SDS011;21562;49.476;6.086;2024-02-14T06:37:47;1.58;;;1.05;;
35444;SDS011;21562;49.476;6.086;2024-02-14T06:40:12;1.63;;;1.20;;
35444;SDS011;21562;49.476;6.086;2024-02-14T06:42:38;2.50;;;1.10;;
35444;SDS011;21562;49.476;6.086;2024-02-14T06:45:04;1.75;;;1.15;;
35444;SDS011;21562;49.476;6.086;2024-02-14T06:47:31;2.30;;;1.17;;
35444;SDS011;21562;49.476;6.086;2024-02-14T06:49:57;1.40;;;1.27;;
35444;SDS011;21562;49.476;6.086;2024-02-14T06:52:22;1.25;;;0.95;;
35444;SDS011;21562;49.476;6.086;2024-02-14T06:54:49;2.75;;;1.30;;
35444;SDS011;21562;49.476;6.086;2024-02-14T06:57:14;3.58;;;1.45;;
35444;SDS011;21562;49.476;6.086;2024-02-14T06:59:41;1.65;;;1.15;;
35444;SDS011;21562;49.476;6.086;2024-02-14T07:02:07;1.40;;;0.90;;
35444;SDS011;21562;49.476;6.086;2024-02-14T07:04:33;2.90;;;1.02;;
35444;SDS011;21562;49.476;6.086;2024-02-14T07:06:58;1.50;;;1.10;;
35444;SDS011;21562;49.476;6.086;2024-02-14T07:09:25;1.63;;;1.08;;
35444;SDS011;21562;49.476;6.086;2024-02-14T07:11:51;2.80;;;1.30;;
35444;SDS011;21562;49.476;6.086;2024-02-14T07:14:22;1.85;;;1.40;;
35444;SDS011;21562;49.476;6.086;2024-02-14T07:16:48;1.60;;;1.25;;
35444;SDS011;21562;49.476;6.086;2024-02-14T07:19:14;3.35;;;1.55;;
35444;SDS011;21562;49.476;6.086;2024-02-14T07:21:39;2.08;;;1.70;;
35444;SDS011;21562;49.476;6.086;2024-02-14T07:24:05;2.53;;;1.50;;
35444;SDS011;21562;49.476;6.086;2024-02-14T07:26:31;2.33;;;1.50;;
35444;SDS011;21562;49.476;6.086;2024-02-14T07:28:57;2.65;;;1.52;;
35444;SDS011;21562;49.476;6.086;2024-02-14T07:31:22;2.75;;;1.77;;
35444;SDS011;21562;49.476;6.086;2024-02-14T07:33:49;2.40;;;1.70;;
35444;SDS011;21562;49.476;6.086;2024-02-14T07:36:18;3.00;;;1.80;;
35444;SDS011;21562;49.476;6.086;2024-02-14T07:38:44;2.13;;;1.73;;
35444;SDS011;21562;49.476;6.086;2024-02-14T07:41:10;2.65;;;1.90;;
35444;SDS011;21562;49.476;6.086;2024-02-14T07:43:36;2.80;;;1.80;;
35444;SDS011;21562;49.476;6.086;2024-02-14T07:46:01;9.23;;;2.83;;
35444;SDS011;21562;49.476;6.086;2024-02-14T07:48:27;14.60;;;3.22;;
35444;SDS011;21562;49.476;6.086;2024-02-14T07:50:53;14.40;;;3.30;;
35444;SDS011;21562;49.476;6.086;2024-02-14T07:53:18;16.02;;;3.58;;
35444;SDS011;21562;49.476;6.086;2024-02-14T07:55:44;10.00;;;3.08;;
35444;SDS011;21562;49.476;6.086;2024-02-14T07:58:10;3.08;;;2.38;;
35444;SDS011;21562;49.476;6.086;2024-02-14T08:00:36;2.67;;;1.60;;
35444;SDS011;21562;49.476;6.086;2024-02-14T08:03:02;3.20;;;1.80;;
35444;SDS011;21562;49.476;6.086;2024-02-14T08:05:30;3.90;;;1.80;;
35444;SDS011;21562;49.476;6.086;2024-02-14T08:07:56;1.63;;;1.52;;
35444;SDS011;21562;49.476;6.086;2024-02-14T08:10:22;3.80;;;2.00;;
35444;SDS011;21562;49.476;6.086;2024-02-14T08:12:48;2.47;;;2.00;;
35444;SDS011;21562;49.476;6.086;2024-02-14T08:15:13;4.60;;;2.30;;
35444;SDS011;21562;49.476;6.086;2024-02-14T08:17:39;2.53;;;1.90;;
35444;SDS011;21562;49.476;6.086;2024-02-14T08:20:05;4.80;;;2.70;;
35444;SDS011;21562;49.476;6.086;2024-02-14T08:22:32;5.68;;;2.55;;
35444;SDS011;21562;49.476;6.086;2024-02-14T08:24:58;5.85;;;2.92;;
35444;SDS011;21562;49.476;6.086;2024-02-14T08:27:24;5.72;;;2.53;;
35444;SDS011;21562;49.476;6.086;2024-02-14T08:29:51;6.00;;;3.30;;
35444;SDS011;21562;49.476;6.086;2024-02-14T08:32:16;6.30;;;3.30;;
35444;SDS011;21562;49.476;6.086;2024-02-14T08:34:42;4.88;;;3.08;;
35444;SDS011;21562;49.476;6.086;2024-02-14T08:37:08;6.30;;;3.70;;
35444;SDS011;21562;49.476;6.086;2024-02-14T08:39:35;6.50;;;3.38;;
35444;SDS011;21562;49.476;6.086;2024-02-14T08:42:01;4.38;;;3.42;;
35444;SDS011;21562;49.476;6.086;2024-02-14T08:44:32;6.30;;;3.60;;
35444;SDS011;21562;49.476;6.086;2024-02-14T08:47:01;5.32;;;3.55;;
35444;SDS011;21562;49.476;6.086;2024-02-14T08:49:26;5.65;;;3.90;;
35444;SDS011;21562;49.476;6.086;2024-02-14T08:51:52;5.47;;;3.80;;
35444;SDS011;21562;49.476;6.086;2024-02-14T08:54:18;7.43;;;3.65;;
35444;SDS011;21562;49.476;6.086;2024-02-14T08:56:43;7.15;;;3.70;;
35444;SDS011;21562;49.476;6.086;2024-02-14T08:59:09;7.20;;;3.78;;
35444;SDS011;21562;49.476;6.086;2024-02-14T09:01:35;5.72;;;3.92;;
35444;SDS011;21562;49.476;6.086;2024-02-14T09:04:01;7.90;;;4.30;;
35444;SDS011;21562;49.476;6.086;2024-02-14T09:06:27;5.47;;;4.20;;
35444;SDS011;21562;49.476;6.086;2024-02-14T09:08:53;6.28;;;3.75;;
35444;SDS011;21562;49.476;6.086;2024-02-14T09:11:19;8.68;;;3.92;;
35444;SDS011;21562;49.476;6.086;2024-02-14T09:13:47;5.32;;;3.58;;
35444;SDS011;21562;49.476;6.086;2024-02-14T09:16:16;7.28;;;4.07;;
35444;SDS011;21562;49.476;6.086;2024-02-14T09:18:42;9.52;;;3.80;;
35444;SDS011;21562;49.476;6.086;2024-02-14T09:21:10;4.70;;;3.17;;
35444;SDS011;21562;49.476;6.086;2024-02-14T09:23:35;5.90;;;3.58;;
35444;SDS011;21562;49.476;6.086;2024-02-14T09:26:05;5.72;;;3.20;;
35444;SDS011;21562;49.476;6.086;2024-02-14T09:28:31;5.63;;;3.75;;
35444;SDS011;21562;49.476;6.086;2024-02-14T09:30:58;5.03;;;3.40;;
35444;SDS011;21562;49.476;6.086;2024-02-14T09:33:23;5.68;;;3.38;;
35444;SDS011;21562;49.476;6.086;2024-02-14T09:35:49;5.35;;;3.35;;
35444;SDS011;21562;49.476;6.086;2024-02-14T09:38:17;7.22;;;3.70;;
35444;SDS011;21562;49.476;6.086;2024-02-14T09:40:43;3.65;;;3.08;;
35444;SDS011;21562;49.476;6.086;2024-02-14T09:45:53;2.47;;;2.15;;
35444;SDS011;21562;49.476;6.086;2024-02-14T09:48:19;5.43;;;2.53;;
35444;SDS011;21562;49.476;6.086;2024-02-14T09:50:48;3.63;;;2.15;;
35444;SDS011;21562;49.476;6.086;2024-02-14T09:53:14;2.40;;;1.95;;
35444;SDS011;21562;49.476;6.086;2024-02-14T09:55:41;1.77;;;1.67;;
35444;SDS011;21562;49.476;6.086;2024-02-14T09:58:07;2.65;;;1.50;;
35444;SDS011;21562;49.476;6.086;2024-02-14T10:00:34;1.88;;;1.58;;
35444;SDS011;21562;49.476;6.086;2024-02-14T10:03:00;1.48;;;1.30;;
35444;SDS011;21562;49.476;6.086;2024-02-14T10:05:26;2.47;;;1.30;;
35444;SDS011;21562;49.476;6.086;2024-02-14T10:07:52;1.70;;;1.30;;
35444;SDS011;21562;49.476;6.086;2024-02-14T10:10:21;1.40;;;1.30;;
35444;SDS011;21562;49.476;6.086;2024-02-14T10:12:47;1.85;;;1.35;;
35444;SDS011;21562;49.476;6.086;2024-02-14T10:15:13;1.63;;;1.27;;
35444;SDS011;21562;49.476;6.086;2024-02-14T10:17:39;1.42;;;1.15;;
35444;SDS011;21562;49.476;6.086;2024-02-14T10:20:07;1.77;;;1.35;;
35444;SDS011;21562;49.476;6.086;2024-02-14T10:22:35;1.38;;;1.23;;
35444;SDS011;21562;49.476;6.086;2024-02-14T10:25:04;2.88;;;1.20;;
35444;SDS011;21562;49.476;6.086;2024-02-14T10:27:37;1.00;;;0.80;;
35444;SDS011;21562;49.476;6.086;2024-02-14T10:30:07;1.20;;;0.90;;
35444;SDS011;21562;49.476;6.086;2024-02-14T10:32:37;0.68;;;0.50;;
35444;SDS011;21562;49.476;6.086;2024-02-14T10:35:06;0.95;;;0.52;;
35444;SDS011;21562;49.476;6.086;2024-02-14T10:37:34;0.85;;;0.70;;
35444;SDS011;21562;49.476;6.086;2024-02-14T10:40:01;0.65;;;0.40;;
35444;SDS011;21562;49.476;6.086;2024-02-14T10:42:29;0.90;;;0.40;;
35444;SDS011;21562;49.476;6.086;2024-02-14T10:44:58;0.70;;;0.50;;
35444;SDS011;21562;49.476;6.086;2024-02-14T10:47:27;1.17;;;0.50;;
35444;SDS011;21562;49.476;6.086;2024-02-14T10:49:57;2.25;;;0.50;;
35444;SDS011;21562;49.476;6.086;2024-02-14T10:52:30;2.08;;;0.80;;
35444;SDS011;21562;49.476;6.086;2024-02-14T10:55:02;1.52;;;0.52;;
35444;SDS011;21562;49.476;6.086;2024-02-14T10:57:29;0.80;;;0.60;;
35444;SDS011;21562;49.476;6.086;2024-02-14T10:59:57;0.93;;;0.60;;
35444;SDS011;21562;49.476;6.086;2024-02-14T11:02:26;1.02;;;0.80;;
35444;SDS011;21562;49.476;6.086;2024-02-14T11:04:55;0.77;;;0.70;;
35444;SDS011;21562;49.476;6.086;2024-02-14T11:07:21;1.00;;;0.60;;
35444;SDS011;21562;49.476;6.086;2024-02-14T11:10:08;1.40;;;0.60;;
35444;SDS011;21562;49.476;6.086;2024-02-14T11:12:38;2.47;;;0.75;;
35444;SDS011;21562;49.476;6.086;2024-02-14T11:15:19;2.95;;;0.90;;
35444;SDS011;21562;49.476;6.086;2024-02-14T11:25:28;1.08;;;0.65;;
35444;SDS011;21562;49.476;6.086;2024-02-14T11:27:56;0.30;;;0.30;;
35444;SDS011;21562;49.476;6.086;2024-02-14T11:30:30;1.00;;;0.60;;
35444;SDS011;21562;49.476;6.086;2024-02-14T11:35:44;3.60;;;1.20;;
35444;SDS011;21562;49.476;6.086;2024-02-14T11:38:15;1.25;;;0.77;;
35444;SDS011;21562;49.476;6.086;2024-02-14T11:40:40;1.80;;;0.80;;
35444;SDS011;21562;49.476;6.086;2024-02-14T11:43:10;1.08;;;0.82;;
35444;SDS011;21562;49.476;6.086;2024-02-14T11:45:37;1.95;;;0.88;;
35444;SDS011;21562;49.476;6.086;2024-02-14T11:48:07;1.30;;;0.73;;
35444;SDS011;21562;49.476;6.086;2024-02-14T11:50:38;1.95;;;0.80;;
35444;SDS011;21562;49.476;6.086;2024-02-14T11:53:06;4.93;;;0.88;;
35444;SDS011;21562;49.476;6.086;2024-02-14T11:55:35;1.50;;;0.63;;
35444;SDS011;21562;49.476;6.086;2024-02-14T11:58:06;2.45;;;0.65;;
35444;SDS011;21562;49.476;6.086;2024-02-14T12:00:41;2.72;;;0.77;;
35444;SDS011;21562;49.476;6.086;2024-02-14T12:03:11;0.70;;;0.70;;
35444;SDS011;21562;49.476;6.086;2024-02-14T12:05:41;1.67;;;1.02;;
35444;SDS011;21562;49.476;6.086;2024-02-14T12:08:12;1.83;;;1.10;;
35444;SDS011;21562;49.476;6.086;2024-02-14T12:10:38;1.25;;;0.70;;
35444;SDS011;21562;49.476;6.086;2024-02-14T12:13:11;0.82;;;0.80;;
35444;SDS011;21562;49.476;6.086;2024-02-14T12:15:40;1.30;;;0.95;;
35444;SDS011;21562;49.476;6.086;2024-02-14T12:18:10;1.30;;;1.10;;
35444;SDS011;21562;49.476;6.086;2024-02-14T12:20:37;1.20;;;1.10;;
35444;SDS011;21562;49.476;6.086;2024-02-14T12:23:03;2.28;;;1.23;;
35444;SDS011;21562;49.476;6.086;2024-02-14T12:25:30;1.67;;;0.95;;
35444;SDS011;21562;49.476;6.086;2024-02-14T12:27:56;2.50;;;1.10;;
35444;SDS011;21562;49.476;6.086;2024-02-14T12:30:50;0.80;;;0.80;;
35444;SDS011;21562;49.476;6.086;2024-02-14T12:33:17;0.80;;;0.70;;
35444;SDS011;21562;49.476;6.086;2024-02-14T12:35:46;0.73;;;0.70;;
35444;SDS011;21562;49.476;6.086;2024-02-14T12:38:13;0.57;;;0.57;;
35444;SDS011;21562;49.476;6.086;2024-02-14T12:40:40;1.05;;;0.60;;
35444;SDS011;21562;49.476;6.086;2024-02-14T12:43:07;1.38;;;0.75;;
35444;SDS011;21562;49.476;6.086;2024-02-14T12:45:33;1.23;;;0.70;;
35444;SDS011;21562;49.476;6.086;2024-02-14T12:47:59;1.58;;;1.00;;
35444;SDS011;21562;49.476;6.086;2024-02-14T12:50:25;12.27;;;2.53;;
35444;SDS011;21562;49.476;6.086;2024-02-14T12:52:51;14.70;;;2.00;;
35444;SDS011;21562;49.476;6.086;2024-02-14T12:55:17;2.58;;;1.33;;
35444;SDS011;21562;49.476;6.086;2024-02-14T12:57:44;1.02;;;0.90;;
35444;SDS011;21562;49.476;6.086;2024-02-14T13:00:10;0.75;;;0.70;;
35444;SDS011;21562;49.476;6.086;2024-02-14T13:02:36;2.35;;;0.93;;
35444;SDS011;21562;49.476;6.086;2024-02-14T13:05:03;0.75;;;0.60;;
35444;SDS011;21562;49.476;6.086;2024-02-14T13:07:30;0.50;;;0.50;;
35444;SDS011;21562;49.476;6.086;2024-02-14T13:09:56;0.40;;;0.40;;
35444;SDS011;21562;49.476;6.086;2024-02-14T13:12:22;0.93;;;0.80;;
35444;SDS011;21562;49.476;6.086;2024-02-14T13:14:48;1.08;;;0.82;;
35444;SDS011;21562;49.476;6.086;2024-02-14T13:17:13;1.67;;;1.13;;
35444;SDS011;21562;49.476;6.086;2024-02-14T13:19:39;3.03;;;1.10;;
35444;SDS011;21562;49.476;6.086;2024-02-14T13:22:07;1.63;;;1.08;;
35444;SDS011;21562;49.476;6.086;2024-02-14T13:24:33;1.33;;;1.23;;
35444;SDS011;21562;49.476;6.086;2024-02-14T13:27:01;1.60;;;1.50;;
35444;SDS011;21562;49.476;6.086;2024-02-14T13:29:28;5.22;;;1.65;;
35444;SDS011;21562;49.476;6.086;2024-02-14T13:31:54;2.47;;;1.83;;
35444;SDS011;21562;49.476;6.086;2024-02-14T13:34:20;3.88;;;1.75;;
35444;SDS011;21562;49.476;6.086;2024-02-14T13:36:48;2.75;;;1.58;;
35444;SDS011;21562;49.476;6.086;2024-02-14T13:39:14;2.80;;;1.67;;
35444;SDS011;21562;49.476;6.086;2024-02-14T13:41:40;2.47;;;1.48;;
35444;SDS011;21562;49.476;6.086;2024-02-14T13:44:09;2.63;;;1.58;;
35444;SDS011;21562;49.476;6.086;2024-02-14T13:46:36;2.15;;;1.63;;
35444;SDS011;21562;49.476;6.086;2024-02-14T13:49:02;2.30;;;1.80;;
35444;SDS011;21562;49.476;6.086;2024-02-14T13:51:28;3.20;;;2.03;;
35444;SDS011;21562;49.476;6.086;2024-02-14T13:53:54;3.72;;;1.95;;
35444;SDS011;21562;49.476;6.086;2024-02-14T13:56:20;2.22;;;2.00;;
35444;SDS011;21562;49.476;6.086;2024-02-14T13:58:47;4.53;;;2.25;;
35444;SDS011;21562;49.476;6.086;2024-02-14T14:01:16;2.92;;;2.20;;
35444;SDS011;21562;49.476;6.086;2024-02-14T14:03:42;2.78;;;2.30;;
35444;SDS011;21562;49.476;6.086;2024-02-14T14:06:08;3.45;;;2.15;;
35444;SDS011;21562;49.476;6.086;2024-02-14T14:08:34;4.30;;;2.63;;
35444;SDS011;21562;49.476;6.086;2024-02-14T14:11:03;4.18;;;2.40;;
35444;SDS011;21562;49.476;6.086;2024-02-14T14:13:29;6.28;;;2.65;;
35444;SDS011;21562;49.476;6.086;2024-02-14T14:15:58;3.67;;;2.70;;
35444;SDS011;21562;49.476;6.086;2024-02-14T14:18:24;8.02;;;3.22;;
35444;SDS011;21562;49.476;6.086;2024-02-14T14:20:50;5.38;;;2.95;;
35444;SDS011;21562;49.476;6.086;2024-02-14T14:23:15;7.40;;;3.03;;
35444;SDS011;21562;49.476;6.086;2024-02-14T14:25:41;5.25;;;3.30;;
35444;SDS011;21562;49.476;6.086;2024-02-14T14:28:07;7.07;;;3.40;;
35444;SDS011;21562;49.476;6.086;2024-02-14T14:30:34;8.38;;;3.95;;
35444;SDS011;21562;49.476;6.086;2024-02-14T14:33:01;5.07;;;3.50;;
35444;SDS011;21562;49.476;6.086;2024-02-14T14:35:27;4.57;;;3.40;;
35444;SDS011;21562;49.476;6.086;2024-02-14T14:37:56;5.68;;;3.90;;
35444;SDS011;21562;49.476;6.086;2024-02-14T14:40:22;6.85;;;4.43;;
35444;SDS011;21562;49.476;6.086;2024-02-14T14:42:49;5.70;;;3.67;;
35444;SDS011;21562;49.476;6.086;2024-02-14T14:45:15;7.13;;;3.40;;
35444;SDS011;21562;49.476;6.086;2024-02-14T14:47:42;7.25;;;3.63;;
35444;SDS011;21562;49.476;6.086;2024-02-14T14:50:08;8.65;;;3.83;;
35444;SDS011;21562;49.476;6.086;2024-02-14T14:52:34;6.85;;;3.63;;
35444;SDS011;21562;49.476;6.086;2024-02-14T14:55:00;8.95;;;3.20;;
35444;SDS011;21562;49.476;6.086;2024-02-14T14:57:25;10.68;;;3.50;;
35444;SDS011;21562;49.476;6.086;2024-02-14T14:59:54;5.03;;;3.10;;